sensor_id;sensor_type;location;lat;lon;timestamp;temperature;humidity
4637;DHT22;2331;48.806;9.140;2023-10-13T00:01:55;21.30;1.00
4637;DHT22;2331;48.806;9.140;2023-10-13T00:04:24;21.30;1.00
4637;DHT22;2331;48.806;9.140;2023-10-13T00:06:51;21.30;1.00
4637;DHT22;2331;48.806;9.140;2023-10-13T00:09:19;21.30;1.00
4637;DHT22;2331;48.806;9.140;2023-10-13T00:11:51;21.40;1.00
4637;DHT22;2331;48.806;9.140;2023-10-13T00:14:19;21.40;1.00
4637;DHT22;2331;48.806;9.140;2023-10-13T00:16:46;21.40;1.00
4637;DHT22;2331;48.806;9.140;2023-10-13T00:19:28;21.40;1.00
4637;DHT22;2331;48.806;9.140;2023-10-13T00:22:03;21.40;1.00
4637;DHT22;2331;48.806;9.140;2023-10-13T00:24:35;21.40;1.00
4637;DHT22;2331;48.806;9.140;2023-10-13T00:27:39;21.40;1.00
4637;DHT22;2331;48.806;9.140;2023-10-13T00:30:07;21.40;1.00
4637;DHT22;2331;48.806;9.140;2023-10-13T00:32:48;21.40;1.00
4637;DHT22;2331;48.806;9.140;2023-10-13T00:35:21;21.40;1.00
4637;DHT22;2331;48.806;9.140;2023-10-13T00:37:53;21.40;1.00
4637;DHT22;2331;48.806;9.140;2023-10-13T00:40:21;21.40;1.00
4637;DHT22;2331;48.806;9.140;2023-10-13T00:43:07;21.40;1.00
4637;DHT22;2331;48.806;9.140;2023-10-13T00:45:50;21.40;1.00
4637;DHT22;2331;48.806;9.140;2023-10-13T00:48:22;21.40;1.00
4637;DHT22;2331;48.806;9.140;2023-10-13T00:50:56;21.30;1.00
4637;DHT22;2331;48.806;9.140;2023-10-13T00:53:25;21.30;1.00
4637;DHT22;2331;48.806;9.140;2023-10-13T00:55:54;21.30;1.00
4637;DHT22;2331;48.806;9.140;2023-10-13T00:58:21;21.30;1.00
4637;DHT22;2331;48.806;9.140;2023-10-13T01:00:50;21.30;1.00
4637;DHT22;2331;48.806;9.140;2023-10-13T01:03:26;21.30;1.00
4637;DHT22;2331;48.806;9.140;2023-10-13T01:05:55;21.30;1.00
4637;DHT22;2331;48.806;9.140;2023-10-13T01:08:33;21.20;1.00
4637;DHT22;2331;48.806;9.140;2023-10-13T01:11:03;21.20;1.00
4637;DHT22;2331;48.806;9.140;2023-10-13T01:13:32;21.20;1.00
4637;DHT22;2331;48.806;9.140;2023-10-13T01:16:02;21.20;1.00
4637;DHT22;2331;48.806;9.140;2023-10-13T01:18:28;21.30;1.00
4637;DHT22;2331;48.806;9.140;2023-10-13T01:20:56;21.20;1.00
4637;DHT22;2331;48.806;9.140;2023-10-13T01:23:26;21.30;1.00
4637;DHT22;2331;48.806;9.140;2023-10-13T01:26:03;21.30;1.00
4637;DHT22;2331;48.806;9.140;2023-10-13T01:28:30;21.30;1.00
4637;DHT22;2331;48.806;9.140;2023-10-13T01:31:10;21.30;1.00
4637;DHT22;2331;48.806;9.140;2023-10-13T01:33:37;21.30;1.00
4637;DHT22;2331;48.806;9.140;2023-10-13T01:36:03;21.30;1.00
4637;DHT22;2331;48.806;9.140;2023-10-13T01:38:34;21.30;1.00
4637;DHT22;2331;48.806;9.140;2023-10-13T01:41:05;21.30;1.00
4637;DHT22;2331;48.806;9.140;2023-10-13T01:43:31;21.20;1.00
4637;DHT22;2331;48.806;9.140;2023-10-13T01:45:57;21.20;1.00
4637;DHT22;2331;48.806;9.140;2023-10-13T01:48:23;21.20;1.00
4637;DHT22;2331;48.806;9.140;2023-10-13T01:50:50;21.10;1.00
4637;DHT22;2331;48.806;9.140;2023-10-13T01:53:21;21.20;1.00
4637;DHT22;2331;48.806;9.140;2023-10-13T01:55:49;21.10;1.00
4637;DHT22;2331;48.806;9.140;2023-10-13T01:58:16;21.10;1.00
4637;DHT22;2331;48.806;9.140;2023-10-13T02:00:45;21.10;1.00
4637;DHT22;2331;48.806;9.140;2023-10-13T02:03:12;21.10;1.00
4637;DHT22;2331;48.806;9.140;2023-10-13T02:05:41;21.10;1.00
4637;DHT22;2331;48.806;9.140;2023-10-13T02:08:12;21.20;1.00
4637;DHT22;2331;48.806;9.140;2023-10-13T02:10:52;21.10;1.00
4637;DHT22;2331;48.806;9.140;2023-10-13T02:13:20;21.10;1.00
4637;DHT22;2331;48.806;9.140;2023-10-13T02:15:48;21.20;1.00
4637;DHT22;2331;48.806;9.140;2023-10-13T02:18:16;21.10;1.00
4637;DHT22;2331;48.806;9.140;2023-10-13T02:20:47;21.10;1.00
4637;DHT22;2331;48.806;9.140;2023-10-13T02:23:20;21.10;1.00
4637;DHT22;2331;48.806;9.140;2023-10-13T02:25:47;21.10;1.00
4637;DHT22;2331;48.806;9.140;2023-10-13T02:28:14;21.10;1.00
4637;DHT22;2331;48.806;9.140;2023-10-13T02:30:47;21.10;1.00
4637;DHT22;2331;48.806;9.140;2023-10-13T02:33:15;21.10;1.00
4637;DHT22;2331;48.806;9.140;2023-10-13T02:35:46;21.20;1.00
4637;DHT22;2331;48.806;9.140;2023-10-13T02:38:19;21.10;1.00
4637;DHT22;2331;48.806;9.140;2023-10-13T02:40:52;21.10;1.00
4637;DHT22;2331;48.806;9.140;2023-10-13T02:43:21;21.10;1.00
4637;DHT22;2331;48.806;9.140;2023-10-13T02:45:56;21.10;1.00
4637;DHT22;2331;48.806;9.140;2023-10-13T02:48:25;21.00;1.00
4637;DHT22;2331;48.806;9.140;2023-10-13T02:50:57;21.00;1.00
4637;DHT22;2331;48.806;9.140;2023-10-13T02:53:28;21.10;1.00
4637;DHT22;2331;48.806;9.140;2023-10-13T02:55:55;21.00;1.00
4637;DHT22;2331;48.806;9.140;2023-10-13T02:58:26;21.10;1.00
4637;DHT22;2331;48.806;9.140;2023-10-13T03:01:05;21.10;1.00
4637;DHT22;2331;48.806;9.140;2023-10-13T03:03:45;21.00;1.00
4637;DHT22;2331;48.806;9.140;2023-10-13T03:06:16;21.00;1.00
4637;DHT22;2331;48.806;9.140;2023-10-13T03:08:42;21.00;1.00
4637;DHT22;2331;48.806;9.140;2023-10-13T03:11:10;21.10;1.00
4637;DHT22;2331;48.806;9.140;2023-10-13T03:13:38;21.10;1.00
4637;DHT22;2331;48.806;9.140;2023-10-13T03:16:13;21.10;1.00
4637;DHT22;2331;48.806;9.140;2023-10-13T03:18:42;21.00;1.00
4637;DHT22;2331;48.806;9.140;2023-10-13T03:21:17;21.00;1.00
4637;DHT22;2331;48.806;9.140;2023-10-13T03:23:54;21.00;1.00
4637;DHT22;2331;48.806;9.140;2023-10-13T03:26:21;21.00;1.00
4637;DHT22;2331;48.806;9.140;2023-10-13T03:28:48;21.00;1.00
4637;DHT22;2331;48.806;9.140;2023-10-13T03:31:18;21.10;1.00
4637;DHT22;2331;48.806;9.140;2023-10-13T03:33:51;21.10;1.00
4637;DHT22;2331;48.806;9.140;2023-10-13T03:36:22;21.00;1.00
4637;DHT22;2331;48.806;9.140;2023-10-13T03:39:21;21.10;1.00
4637;DHT22;2331;48.806;9.140;2023-10-13T03:41:56;21.00;1.00
4637;DHT22;2331;48.806;9.140;2023-10-13T03:44:25;21.00;1.00
4637;DHT22;2331;48.806;9.140;2023-10-13T03:46:56;21.00;1.00
4637;DHT22;2331;48.806;9.140;2023-10-13T03:49:26;21.00;1.00
4637;DHT22;2331;48.806;9.140;2023-10-13T03:51:54;21.00;1.00
4637;DHT22;2331;48.806;9.140;2023-10-13T03:54:23;21.00;1.00
4637;DHT22;2331;48.806;9.140;2023-10-13T03:56:49;21.00;1.00
4637;DHT22;2331;48.806;9.140;2023-10-13T03:59:18;21.00;1.00
4637;DHT22;2331;48.806;9.140;2023-10-13T04:01:47;21.00;1.00
4637;DHT22;2331;48.806;9.140;2023-10-13T04:04:24;20.90;1.00
4637;DHT22;2331;48.806;9.140;2023-10-13T04:07:00;20.90;1.00
4637;DHT22;2331;48.806;9.140;2023-10-13T04:09:59;21.00;1.00
4637;DHT22;2331;48.806;9.140;2023-10-13T04:12:43;21.00;1.00
4637;DHT22;2331;48.806;9.140;2023-10-13T04:15:28;20.90;1.00
4637;DHT22;2331;48.806;9.140;2023-10-13T04:18:06;20.90;1.00
4637;DHT22;2331;48.806;9.140;2023-10-13T04:20:56;20.90;1.00
4637;DHT22;2331;48.806;9.140;2023-10-13T04:23:33;20.90;1.00
4637;DHT22;2331;48.806;9.140;2023-10-13T04:26:20;20.90;1.00
4637;DHT22;2331;48.806;9.140;2023-10-13T04:28:47;20.90;1.00
4637;DHT22;2331;48.806;9.140;2023-10-13T04:31:21;20.80;1.00
4637;DHT22;2331;48.806;9.140;2023-10-13T04:34:11;20.70;1.00
4637;DHT22;2331;48.806;9.140;2023-10-13T04:36:53;20.70;1.00
4637;DHT22;2331;48.806;9.140;2023-10-13T04:39:42;20.70;1.00
4637;DHT22;2331;48.806;9.140;2023-10-13T04:42:08;20.70;1.00
4637;DHT22;2331;48.806;9.140;2023-10-13T04:44:52;20.60;1.00
4637;DHT22;2331;48.806;9.140;2023-10-13T04:47:22;20.60;1.00
4637;DHT22;2331;48.806;9.140;2023-10-13T04:49:50;20.60;1.00
4637;DHT22;2331;48.806;9.140;2023-10-13T04:52:17;20.60;1.00
4637;DHT22;2331;48.806;9.140;2023-10-13T04:55:05;20.60;1.00
4637;DHT22;2331;48.806;9.140;2023-10-13T04:58:08;20.60;1.00
4637;DHT22;2331;48.806;9.140;2023-10-13T05:01:01;20.70;1.00
4637;DHT22;2331;48.806;9.140;2023-10-13T05:04:05;20.70;1.00
4637;DHT22;2331;48.806;9.140;2023-10-13T05:06:57;20.70;1.00
4637;DHT22;2331;48.806;9.140;2023-10-13T05:09:41;20.70;1.00
4637;DHT22;2331;48.806;9.140;2023-10-13T05:12:25;20.70;1.00
4637;DHT22;2331;48.806;9.140;2023-10-13T05:15:06;20.70;1.00
4637;DHT22;2331;48.806;9.140;2023-10-13T05:17:50;20.70;1.00
4637;DHT22;2331;48.806;9.140;2023-10-13T05:20:35;20.70;1.00
4637;DHT22;2331;48.806;9.140;2023-10-13T05:23:20;20.70;1.00
4637;DHT22;2331;48.806;9.140;2023-10-13T05:26:10;20.70;1.00
4637;DHT22;2331;48.806;9.140;2023-10-13T05:28:54;20.70;1.00
4637;DHT22;2331;48.806;9.140;2023-10-13T05:31:38;20.70;1.00
4637;DHT22;2331;48.806;9.140;2023-10-13T05:34:22;20.70;1.00
4637;DHT22;2331;48.806;9.140;2023-10-13T05:37:06;20.70;1.00
4637;DHT22;2331;48.806;9.140;2023-10-13T05:39:52;20.70;1.00
4637;DHT22;2331;48.806;9.140;2023-10-13T05:42:36;20.70;1.00
4637;DHT22;2331;48.806;9.140;2023-10-13T05:45:20;20.70;1.00
4637;DHT22;2331;48.806;9.140;2023-10-13T05:48:02;20.70;1.00
4637;DHT22;2331;48.806;9.140;2023-10-13T05:50:31;20.70;1.00
4637;DHT22;2331;48.806;9.140;2023-10-13T05:53:36;20.60;1.00
4637;DHT22;2331;48.806;9.140;2023-10-13T05:56:22;20.70;1.00
4637;DHT22;2331;48.806;9.140;2023-10-13T05:59:06;20.70;1.00
4637;DHT22;2331;48.806;9.140;2023-10-13T06:01:50;20.70;1.00
4637;DHT22;2331;48.806;9.140;2023-10-13T06:04:34;20.70;1.00
4637;DHT22;2331;48.806;9.140;2023-10-13T06:07:19;20.70;1.00
4637;DHT22;2331;48.806;9.140;2023-10-13T06:10:03;20.70;1.00
4637;DHT22;2331;48.806;9.140;2023-10-13T06:12:50;20.60;1.00
4637;DHT22;2331;48.806;9.140;2023-10-13T06:15:36;20.60;1.00
4637;DHT22;2331;48.806;9.140;2023-10-13T06:18:20;20.70;1.00
4637;DHT22;2331;48.806;9.140;2023-10-13T06:21:05;20.60;1.00
4637;DHT22;2331;48.806;9.140;2023-10-13T06:23:49;20.70;1.00
4637;DHT22;2331;48.806;9.140;2023-10-13T06:26:33;20.60;1.00
4637;DHT22;2331;48.806;9.140;2023-10-13T06:29:19;20.60;1.00
4637;DHT22;2331;48.806;9.140;2023-10-13T06:31:47;20.70;1.00
4637;DHT22;2331;48.806;9.140;2023-10-13T06:34:14;20.60;1.00
4637;DHT22;2331;48.806;9.140;2023-10-13T06:36:41;20.70;1.00
4637;DHT22;2331;48.806;9.140;2023-10-13T06:39:11;20.70;1.00
4637;DHT22;2331;48.806;9.140;2023-10-13T06:42:00;20.70;1.00
4637;DHT22;2331;48.806;9.140;2023-10-13T06:44:30;20.70;1.00
4637;DHT22;2331;48.806;9.140;2023-10-13T06:46:58;20.70;1.00
4637;DHT22;2331;48.806;9.140;2023-10-13T06:49:24;20.70;1.00
4637;DHT22;2331;48.806;9.140;2023-10-13T06:51:54;20.70;1.00
4637;DHT22;2331;48.806;9.140;2023-10-13T06:54:26;20.70;1.00
4637;DHT22;2331;48.806;9.140;2023-10-13T06:56:54;20.70;1.00
4637;DHT22;2331;48.806;9.140;2023-10-13T06:59:21;20.70;1.00
4637;DHT22;2331;48.806;9.140;2023-10-13T07:01:53;20.70;1.00
4637;DHT22;2331;48.806;9.140;2023-10-13T07:04:20;20.70;1.00
4637;DHT22;2331;48.806;9.140;2023-10-13T07:06:47;20.70;1.00
4637;DHT22;2331;48.806;9.140;2023-10-13T07:09:15;20.70;1.00
4637;DHT22;2331;48.806;9.140;2023-10-13T07:12:06;20.80;1.00
4637;DHT22;2331;48.806;9.140;2023-10-13T07:14:33;20.80;1.00
4637;DHT22;2331;48.806;9.140;2023-10-13T07:17:04;20.80;1.00
4637;DHT22;2331;48.806;9.140;2023-10-13T07:19:31;20.80;1.00
4637;DHT22;2331;48.806;9.140;2023-10-13T07:22:00;20.90;1.00
4637;DHT22;2331;48.806;9.140;2023-10-13T07:24:29;20.80;1.00
4637;DHT22;2331;48.806;9.140;2023-10-13T07:26:58;20.90;1.00
4637;DHT22;2331;48.806;9.140;2023-10-13T07:29:30;20.90;1.00
4637;DHT22;2331;48.806;9.140;2023-10-13T07:31:59;20.90;1.00
4637;DHT22;2331;48.806;9.140;2023-10-13T07:34:29;20.90;1.00
4637;DHT22;2331;48.806;9.140;2023-10-13T07:36:58;20.90;1.00
4637;DHT22;2331;48.806;9.140;2023-10-13T07:39:27;20.90;1.00
4637;DHT22;2331;48.806;9.140;2023-10-13T07:41:59;20.90;1.00
4637;DHT22;2331;48.806;9.140;2023-10-13T07:44:34;21.00;1.00
4637;DHT22;2331;48.806;9.140;2023-10-13T07:47:03;21.00;1.00
4637;DHT22;2331;48.806;9.140;2023-10-13T07:49:36;21.00;1.00
4637;DHT22;2331;48.806;9.140;2023-10-13T07:52:07;21.00;1.00
4637;DHT22;2331;48.806;9.140;2023-10-13T07:54:52;21.00;1.00
4637;DHT22;2331;48.806;9.140;2023-10-13T07:57:25;21.00;1.00
4637;DHT22;2331;48.806;9.140;2023-10-13T07:59:54;21.10;1.00
4637;DHT22;2331;48.806;9.140;2023-10-13T08:02:32;21.00;1.00
4637;DHT22;2331;48.806;9.140;2023-10-13T08:05:15;21.10;1.00
4637;DHT22;2331;48.806;9.140;2023-10-13T08:07:50;21.10;1.00
4637;DHT22;2331;48.806;9.140;2023-10-13T08:10:18;21.10;1.00
4637;DHT22;2331;48.806;9.140;2023-10-13T08:12:50;21.10;1.00
4637;DHT22;2331;48.806;9.140;2023-10-13T08:15:17;21.10;1.00
4637;DHT22;2331;48.806;9.140;2023-10-13T08:17:58;21.20;1.00
4637;DHT22;2331;48.806;9.140;2023-10-13T08:20:30;21.20;1.00
4637;DHT22;2331;48.806;9.140;2023-10-13T08:23:04;21.30;1.00
4637;DHT22;2331;48.806;9.140;2023-10-13T08:25:39;21.40;1.00
4637;DHT22;2331;48.806;9.140;2023-10-13T08:28:19;21.40;1.00
4637;DHT22;2331;48.806;9.140;2023-10-13T08:31:04;21.50;1.00
4637;DHT22;2331;48.806;9.140;2023-10-13T08:33:40;21.60;1.00
4637;DHT22;2331;48.806;9.140;2023-10-13T08:36:13;21.60;1.00
4637;DHT22;2331;48.806;9.140;2023-10-13T08:38:55;21.70;1.00
4637;DHT22;2331;48.806;9.140;2023-10-13T08:41:22;21.80;1.00
4637;DHT22;2331;48.806;9.140;2023-10-13T08:43:57;21.80;1.00
4637;DHT22;2331;48.806;9.140;2023-10-13T08:46:30;21.90;1.00
4637;DHT22;2331;48.806;9.140;2023-10-13T08:49:18;22.00;1.00
4637;DHT22;2331;48.806;9.140;2023-10-13T08:51:50;22.10;1.00
4637;DHT22;2331;48.806;9.140;2023-10-13T08:54:32;22.10;1.00
4637;DHT22;2331;48.806;9.140;2023-10-13T08:57:11;22.20;1.00
4637;DHT22;2331;48.806;9.140;2023-10-13T08:59:58;22.40;1.00
4637;DHT22;2331;48.806;9.140;2023-10-13T09:02:45;22.50;1.00
4637;DHT22;2331;48.806;9.140;2023-10-13T09:05:43;22.50;1.00
4637;DHT22;2331;48.806;9.140;2023-10-13T09:08:27;22.60;1.00
4637;DHT22;2331;48.806;9.140;2023-10-13T09:11:02;22.70;1.00
4637;DHT22;2331;48.806;9.140;2023-10-13T09:13:37;22.80;1.00
4637;DHT22;2331;48.806;9.140;2023-10-13T09:16:10;22.80;1.00
4637;DHT22;2331;48.806;9.140;2023-10-13T09:18:42;23.00;1.00
4637;DHT22;2331;48.806;9.140;2023-10-13T09:21:12;23.10;1.00
4637;DHT22;2331;48.806;9.140;2023-10-13T09:24:11;23.20;1.00
4637;DHT22;2331;48.806;9.140;2023-10-13T09:26:55;23.30;1.00
4637;DHT22;2331;48.806;9.140;2023-10-13T09:29:22;23.50;1.00
4637;DHT22;2331;48.806;9.140;2023-10-13T09:31:59;23.50;1.00
4637;DHT22;2331;48.806;9.140;2023-10-13T09:34:27;23.60;1.00
4637;DHT22;2331;48.806;9.140;2023-10-13T09:36:57;23.70;1.00
4637;DHT22;2331;48.806;9.140;2023-10-13T09:39:26;23.80;1.00
4637;DHT22;2331;48.806;9.140;2023-10-13T09:42:10;23.90;1.00
4637;DHT22;2331;48.806;9.140;2023-10-13T09:44:38;23.90;1.00
4637;DHT22;2331;48.806;9.140;2023-10-13T09:47:09;24.00;1.00
4637;DHT22;2331;48.806;9.140;2023-10-13T09:49:44;24.10;1.00
4637;DHT22;2331;48.806;9.140;2023-10-13T09:52:16;24.10;1.00
4637;DHT22;2331;48.806;9.140;2023-10-13T09:55:11;24.20;1.00
4637;DHT22;2331;48.806;9.140;2023-10-13T09:57:43;24.20;1.00
4637;DHT22;2331;48.806;9.140;2023-10-13T10:00:17;24.30;1.00
4637;DHT22;2331;48.806;9.140;2023-10-13T10:03:10;24.50;1.00
4637;DHT22;2331;48.806;9.140;2023-10-13T10:05:57;24.50;1.00
4637;DHT22;2331;48.806;9.140;2023-10-13T10:08:31;24.60;1.00
4637;DHT22;2331;48.806;9.140;2023-10-13T10:11:14;24.80;1.00
4637;DHT22;2331;48.806;9.140;2023-10-13T10:13:52;24.80;1.00
4637;DHT22;2331;48.806;9.140;2023-10-13T10:16:30;24.90;1.00
4637;DHT22;2331;48.806;9.140;2023-10-13T10:19:03;25.00;1.00
4637;DHT22;2331;48.806;9.140;2023-10-13T10:21:33;25.20;1.00
4637;DHT22;2331;48.806;9.140;2023-10-13T10:24:01;25.20;1.00
4637;DHT22;2331;48.806;9.140;2023-10-13T10:26:51;25.30;1.00
4637;DHT22;2331;48.806;9.140;2023-10-13T10:29:18;25.30;1.00
4637;DHT22;2331;48.806;9.140;2023-10-13T10:31:45;25.30;1.00
4637;DHT22;2331;48.806;9.140;2023-10-13T10:34:13;25.40;1.00
4637;DHT22;2331;48.806;9.140;2023-10-13T10:36:46;25.40;1.00
4637;DHT22;2331;48.806;9.140;2023-10-13T10:39:14;25.50;1.00
4637;DHT22;2331;48.806;9.140;2023-10-13T10:41:43;25.50;1.00
4637;DHT22;2331;48.806;9.140;2023-10-13T10:44:19;25.50;1.00
4637;DHT22;2331;48.806;9.140;2023-10-13T10:47:12;25.50;1.00
4637;DHT22;2331;48.806;9.140;2023-10-13T10:49:45;25.50;1.00
4637;DHT22;2331;48.806;9.140;2023-10-13T10:52:17;25.70;1.00
4637;DHT22;2331;48.806;9.140;2023-10-13T10:54:45;25.70;1.00
4637;DHT22;2331;48.806;9.140;2023-10-13T10:57:17;25.80;1.00
4637;DHT22;2331;48.806;9.140;2023-10-13T10:59:46;25.80;1.00
4637;DHT22;2331;48.806;9.140;2023-10-13T11:02:17;25.90;1.00
4637;DHT22;2331;48.806;9.140;2023-10-13T11:04:52;25.90;1.00
4637;DHT22;2331;48.806;9.140;2023-10-13T11:07:21;26.00;1.00
4637;DHT22;2331;48.806;9.140;2023-10-13T11:09:49;26.00;1.00
4637;DHT22;2331;48.806;9.140;2023-10-13T11:12:19;26.10;1.00
4637;DHT22;2331;48.806;9.140;2023-10-13T11:15:02;26.10;1.00
4637;DHT22;2331;48.806;9.140;2023-10-13T11:17:39;26.20;1.00
4637;DHT22;2331;48.806;9.140;2023-10-13T11:20:10;26.30;1.00
4637;DHT22;2331;48.806;9.140;2023-10-13T11:22:45;26.40;1.00
4637;DHT22;2331;48.806;9.140;2023-10-13T11:25:21;26.40;1.00
4637;DHT22;2331;48.806;9.140;2023-10-13T11:27:49;26.50;1.00
4637;DHT22;2331;48.806;9.140;2023-10-13T11:30:24;26.70;1.00
4637;DHT22;2331;48.806;9.140;2023-10-13T11:33:03;26.70;1.00
4637;DHT22;2331;48.806;9.140;2023-10-13T11:35:31;26.80;1.00
4637;DHT22;2331;48.806;9.140;2023-10-13T11:38:12;26.90;1.00
4637;DHT22;2331;48.806;9.140;2023-10-13T11:40:39;27.00;1.00
4637;DHT22;2331;48.806;9.140;2023-10-13T11:43:32;27.10;1.00
4637;DHT22;2331;48.806;9.140;2023-10-13T11:46:06;27.10;1.00
4637;DHT22;2331;48.806;9.140;2023-10-13T11:48:41;27.10;1.00
4637;DHT22;2331;48.806;9.140;2023-10-13T11:51:08;27.30;1.00
4637;DHT22;2331;48.806;9.140;2023-10-13T11:53:43;27.30;1.00
4637;DHT22;2331;48.806;9.140;2023-10-13T11:56:09;27.30;1.00
4637;DHT22;2331;48.806;9.140;2023-10-13T11:58:36;27.40;1.00
4637;DHT22;2331;48.806;9.140;2023-10-13T12:01:04;27.50;1.00
4637;DHT22;2331;48.806;9.140;2023-10-13T12:03:48;27.50;1.00
4637;DHT22;2331;48.806;9.140;2023-10-13T12:06:33;27.60;1.00
4637;DHT22;2331;48.806;9.140;2023-10-13T12:09:12;27.70;1.00
4637;DHT22;2331;48.806;9.140;2023-10-13T12:11:57;27.70;1.00
4637;DHT22;2331;48.806;9.140;2023-10-13T12:14:26;27.70;1.00
4637;DHT22;2331;48.806;9.140;2023-10-13T12:16:55;27.70;1.00
4637;DHT22;2331;48.806;9.140;2023-10-13T12:19:30;27.80;1.00
4637;DHT22;2331;48.806;9.140;2023-10-13T12:21:58;27.90;1.00
4637;DHT22;2331;48.806;9.140;2023-10-13T12:24:30;28.00;1.00
4637;DHT22;2331;48.806;9.140;2023-10-13T12:27:06;28.00;1.00
4637;DHT22;2331;48.806;9.140;2023-10-13T12:29:45;28.10;1.00
4637;DHT22;2331;48.806;9.140;2023-10-13T12:32:12;28.20;1.00
4637;DHT22;2331;48.806;9.140;2023-10-13T12:34:41;28.30;1.00
4637;DHT22;2331;48.806;9.140;2023-10-13T12:37:26;28.40;1.00
4637;DHT22;2331;48.806;9.140;2023-10-13T12:40:16;28.50;1.00
4637;DHT22;2331;48.806;9.140;2023-10-13T12:43:00;28.50;1.00
4637;DHT22;2331;48.806;9.140;2023-10-13T12:45:46;28.60;1.00
4637;DHT22;2331;48.806;9.140;2023-10-13T12:48:32;28.60;1.00
4637;DHT22;2331;48.806;9.140;2023-10-13T12:51:18;28.60;1.00
4637;DHT22;2331;48.806;9.140;2023-10-13T12:54:06;28.60;1.00
4637;DHT22;2331;48.806;9.140;2023-10-13T12:56:39;28.70;1.00
4637;DHT22;2331;48.806;9.140;2023-10-13T12:59:07;28.80;1.00
4637;DHT22;2331;48.806;9.140;2023-10-13T13:01:35;28.80;1.00
4637;DHT22;2331;48.806;9.140;2023-10-13T13:04:07;28.90;1.00
4637;DHT22;2331;48.806;9.140;2023-10-13T13:06:39;29.00;1.00
4637;DHT22;2331;48.806;9.140;2023-10-13T13:09:06;29.00;1.00
4637;DHT22;2331;48.806;9.140;2023-10-13T13:11:35;29.10;1.00
4637;DHT22;2331;48.806;9.140;2023-10-13T13:14:05;29.20;1.00
4637;DHT22;2331;48.806;9.140;2023-10-13T13:16:33;29.20;1.00
4637;DHT22;2331;48.806;9.140;2023-10-13T13:19:00;29.30;1.00
4637;DHT22;2331;48.806;9.140;2023-10-13T13:21:35;29.20;1.00
4637;DHT22;2331;48.806;9.140;2023-10-13T13:24:04;29.10;1.00
4637;DHT22;2331;48.806;9.140;2023-10-13T13:26:36;29.20;1.00
4637;DHT22;2331;48.806;9.140;2023-10-13T13:29:06;29.30;1.00
4637;DHT22;2331;48.806;9.140;2023-10-13T13:31:35;29.20;1.00
4637;DHT22;2331;48.806;9.140;2023-10-13T13:34:06;29.30;1.00
4637;DHT22;2331;48.806;9.140;2023-10-13T13:36:35;29.40;1.00
4637;DHT22;2331;48.806;9.140;2023-10-13T13:39:03;29.40;1.00
4637;DHT22;2331;48.806;9.140;2023-10-13T13:41:31;29.40;1.00
4637;DHT22;2331;48.806;9.140;2023-10-13T13:43:58;29.40;1.00
4637;DHT22;2331;48.806;9.140;2023-10-13T13:46:39;29.40;1.00
4637;DHT22;2331;48.806;9.140;2023-10-13T13:49:08;29.40;1.00
4637;DHT22;2331;48.806;9.140;2023-10-13T13:51:43;29.40;1.00
4637;DHT22;2331;48.806;9.140;2023-10-13T13:54:18;29.50;1.00
4637;DHT22;2331;48.806;9.140;2023-10-13T13:56:46;29.50;1.00
4637;DHT22;2331;48.806;9.140;2023-10-13T13:59:13;29.60;1.00
4637;DHT22;2331;48.806;9.140;2023-10-13T14:01:43;29.60;1.00
4637;DHT22;2331;48.806;9.140;2023-10-13T14:04:10;29.60;1.00
4637;DHT22;2331;48.806;9.140;2023-10-13T14:06:39;29.60;1.00
4637;DHT22;2331;48.806;9.140;2023-10-13T14:09:06;29.50;1.00
4637;DHT22;2331;48.806;9.140;2023-10-13T14:11:42;29.50;1.00
4637;DHT22;2331;48.806;9.140;2023-10-13T14:14:26;29.40;1.00
4637;DHT22;2331;48.806;9.140;2023-10-13T14:16:59;29.50;1.00
4637;DHT22;2331;48.806;9.140;2023-10-13T14:19:33;29.40;1.00
4637;DHT22;2331;48.806;9.140;2023-10-13T14:22:00;29.40;1.00
4637;DHT22;2331;48.806;9.140;2023-10-13T14:24:32;29.40;1.00
4637;DHT22;2331;48.806;9.140;2023-10-13T14:27:03;29.40;1.00
4637;DHT22;2331;48.806;9.140;2023-10-13T14:29:35;29.40;1.00
4637;DHT22;2331;48.806;9.140;2023-10-13T14:32:06;29.40;1.00
4637;DHT22;2331;48.806;9.140;2023-10-13T14:34:38;29.40;1.00
4637;DHT22;2331;48.806;9.140;2023-10-13T14:37:05;29.20;1.00
4637;DHT22;2331;48.806;9.140;2023-10-13T14:39:31;29.40;1.00
4637;DHT22;2331;48.806;9.140;2023-10-13T14:42:02;29.30;1.00
4637;DHT22;2331;48.806;9.140;2023-10-13T14:44:31;29.30;1.00
4637;DHT22;2331;48.806;9.140;2023-10-13T14:46:58;29.20;1.00
4637;DHT22;2331;48.806;9.140;2023-10-13T14:49:25;29.20;1.00
4637;DHT22;2331;48.806;9.140;2023-10-13T14:51:52;29.10;1.00
4637;DHT22;2331;48.806;9.140;2023-10-13T14:54:20;29.10;1.00
4637;DHT22;2331;48.806;9.140;2023-10-13T14:56:59;29.10;1.00
4637;DHT22;2331;48.806;9.140;2023-10-13T14:59:27;29.10;1.00
4637;DHT22;2331;48.806;9.140;2023-10-13T15:01:59;29.20;1.00
4637;DHT22;2331;48.806;9.140;2023-10-13T15:04:26;29.10;1.00
4637;DHT22;2331;48.806;9.140;2023-10-13T15:06:54;29.00;1.00
4637;DHT22;2331;48.806;9.140;2023-10-13T15:09:21;29.00;1.00
4637;DHT22;2331;48.806;9.140;2023-10-13T15:11:50;29.00;1.00
4637;DHT22;2331;48.806;9.140;2023-10-13T15:14:18;28.90;1.00
4637;DHT22;2331;48.806;9.140;2023-10-13T15:16:49;28.90;1.00
4637;DHT22;2331;48.806;9.140;2023-10-13T15:19:17;28.90;1.00
4637;DHT22;2331;48.806;9.140;2023-10-13T15:21:44;28.80;1.00
4637;DHT22;2331;48.806;9.140;2023-10-13T15:24:15;28.90;1.00
4637;DHT22;2331;48.806;9.140;2023-10-13T15:26:42;28.80;1.00
4637;DHT22;2331;48.806;9.140;2023-10-13T15:29:14;28.80;1.00
4637;DHT22;2331;48.806;9.140;2023-10-13T15:31:42;28.70;1.00
4637;DHT22;2331;48.806;9.140;2023-10-13T15:34:21;28.70;1.00
4637;DHT22;2331;48.806;9.140;2023-10-13T15:36:49;28.70;1.00
4637;DHT22;2331;48.806;9.140;2023-10-13T15:39:18;28.70;1.00
4637;DHT22;2331;48.806;9.140;2023-10-13T15:41:49;28.60;1.00
4637;DHT22;2331;48.806;9.140;2023-10-13T15:44:18;28.60;1.00
4637;DHT22;2331;48.806;9.140;2023-10-13T15:46:46;28.60;1.00
4637;DHT22;2331;48.806;9.140;2023-10-13T15:49:14;28.60;1.00
4637;DHT22;2331;48.806;9.140;2023-10-13T15:51:43;28.60;1.00
4637;DHT22;2331;48.806;9.140;2023-10-13T15:54:09;28.60;1.00
4637;DHT22;2331;48.806;9.140;2023-10-13T15:56:40;28.60;1.00
4637;DHT22;2331;48.806;9.140;2023-10-13T15:59:07;28.50;1.00
4637;DHT22;2331;48.806;9.140;2023-10-13T16:01:34;28.50;1.00
4637;DHT22;2331;48.806;9.140;2023-10-13T16:04:01;28.50;1.00
4637;DHT22;2331;48.806;9.140;2023-10-13T16:06:36;28.50;1.00
4637;DHT22;2331;48.806;9.140;2023-10-13T16:09:05;28.40;1.00
4637;DHT22;2331;48.806;9.140;2023-10-13T16:11:40;28.20;1.00
4637;DHT22;2331;48.806;9.140;2023-10-13T16:14:08;28.20;1.00
4637;DHT22;2331;48.806;9.140;2023-10-13T16:16:41;28.20;1.00
4637;DHT22;2331;48.806;9.140;2023-10-13T16:19:12;28.20;1.00
4637;DHT22;2331;48.806;9.140;2023-10-13T16:21:40;28.10;1.00
4637;DHT22;2331;48.806;9.140;2023-10-13T16:24:08;28.00;1.00
4637;DHT22;2331;48.806;9.140;2023-10-13T16:26:37;28.00;1.00
4637;DHT22;2331;48.806;9.140;2023-10-13T16:29:06;28.00;1.00
4637;DHT22;2331;48.806;9.140;2023-10-13T16:31:33;28.00;1.00
4637;DHT22;2331;48.806;9.140;2023-10-13T16:34:00;28.00;1.00
4637;DHT22;2331;48.806;9.140;2023-10-13T16:36:27;27.90;1.00
4637;DHT22;2331;48.806;9.140;2023-10-13T16:38:56;28.00;1.00
4637;DHT22;2331;48.806;9.140;2023-10-13T16:41:25;27.90;1.00
4637;DHT22;2331;48.806;9.140;2023-10-13T16:43:52;27.80;1.00
4637;DHT22;2331;48.806;9.140;2023-10-13T16:46:19;27.80;1.00
4637;DHT22;2331;48.806;9.140;2023-10-13T16:48:46;27.70;1.00
4637;DHT22;2331;48.806;9.140;2023-10-13T16:51:15;27.70;1.00
4637;DHT22;2331;48.806;9.140;2023-10-13T16:53:42;27.70;1.00
4637;DHT22;2331;48.806;9.140;2023-10-13T16:56:12;27.60;1.00
4637;DHT22;2331;48.806;9.140;2023-10-13T16:58:40;27.50;1.00
4637;DHT22;2331;48.806;9.140;2023-10-13T17:01:10;27.60;1.00